createdAt,value
2022-08-26T00:02:13.909Z,28.18
2022-08-26T00:04:43.820Z,28.15
2022-08-26T00:07:12.285Z,28.17
2022-08-26T00:09:40.632Z,28.19
2022-08-26T00:12:12.117Z,28.17
2022-08-26T00:14:41.896Z,28.20
2022-08-26T00:17:12.096Z,28.16
2022-08-26T00:19:40.407Z,28.16
2022-08-26T00:22:08.713Z,28.15
2022-08-26T00:24:37.071Z,28.13
2022-08-26T00:27:06.527Z,28.13
2022-08-26T00:29:37.371Z,28.15
2022-08-26T00:32:07.280Z,28.15
2022-08-26T00:34:39.113Z,28.15
2022-08-26T00:37:09.389Z,28.13
2022-08-26T00:39:38.681Z,28.12
2022-08-26T00:42:07.170Z,28.12
2022-08-26T00:44:35.661Z,28.12
2022-08-26T00:47:08.983Z,28.11
2022-08-26T00:49:41.941Z,28.13
2022-08-26T00:52:13.262Z,28.13
2022-08-26T00:54:47.935Z,28.09
2022-08-26T00:57:19.920Z,28.11
2022-08-26T00:59:59.584Z,28.14
2022-08-26T01:02:28.892Z,28.09
2022-08-26T01:05:03.423Z,28.02
2022-08-26T01:07:34.730Z,28.12
2022-08-26T01:10:06.568Z,28.09
2022-08-26T01:12:40.327Z,28.08
2022-08-26T01:15:11.322Z,28.11
2022-08-26T01:17:41.273Z,28.11
2022-08-26T01:20:26.176Z,28.05
2022-08-26T01:22:58.628Z,28.10
2022-08-26T01:25:33.469Z,28.12
2022-08-26T01:28:06.841Z,28.08
2022-08-26T01:30:36.573Z,28.07
2022-08-26T01:33:11.731Z,28.06
2022-08-26T01:35:40.499Z,28.04
2022-08-26T01:38:11.171Z,28.01
2022-08-26T01:40:43.824Z,28.01
2022-08-26T01:43:18.331Z,27.99
2022-08-26T01:45:48.086Z,28.00
2022-08-26T01:48:21.374Z,28.03
2022-08-26T01:50:49.929Z,27.99
2022-08-26T01:53:21.474Z,28.00
2022-08-26T01:55:54.332Z,28.01
2022-08-26T01:58:25.232Z,28.05
2022-08-26T02:00:54.319Z,27.99
2022-08-26T02:03:22.698Z,27.99
2022-08-26T02:06:00.075Z,27.98
2022-08-26T02:08:33.214Z,27.99
2022-08-26T02:11:01.880Z,28.03
2022-08-26T02:13:32.674Z,27.97
2022-08-26T02:16:03.954Z,27.96
2022-08-26T02:18:36.914Z,27.99
2022-08-26T02:21:06.815Z,27.94
2022-08-26T02:23:36.656Z,27.95
2022-08-26T02:26:10.799Z,27.90
2022-08-26T02:28:45.767Z,27.94
2022-08-26T02:31:14.447Z,27.93
2022-08-26T02:33:43.170Z,27.85
2022-08-26T02:36:12.106Z,27.85
2022-08-26T02:38:43.389Z,27.88
2022-08-26T02:41:11.617Z,27.84
2022-08-26T02:43:39.845Z,27.84
2022-08-26T02:46:08.506Z,27.82
2022-08-26T02:48:37.149Z,27.79
2022-08-26T02:51:05.869Z,27.84
2022-08-26T02:53:35.625Z,27.76
2022-08-26T02:56:08.499Z,27.83
2022-08-26T02:58:37.204Z,27.79
2022-08-26T03:01:05.888Z,27.77
2022-08-26T03:03:35.123Z,27.74
2022-08-26T03:06:03.472Z,27.62
2022-08-26T03:08:31.765Z,27.42
2022-08-26T03:11:01.575Z,27.44
2022-08-26T03:13:31.547Z,27.43
2022-08-26T03:16:02.806Z,27.46
2022-08-26T03:18:31.414Z,27.56
2022-08-26T03:21:00.371Z,27.60
2022-08-26T03:23:28.730Z,27.46
2022-08-26T03:25:57.075Z,27.48
2022-08-26T03:28:27.191Z,27.52
2022-08-26T03:30:57.183Z,27.61
2022-08-26T03:33:26.254Z,27.58
2022-08-26T03:35:54.411Z,27.71
2022-08-26T03:38:25.277Z,27.50
2022-08-26T03:40:53.615Z,27.61
2022-08-26T03:43:22.532Z,27.62
2022-08-26T03:45:51.271Z,27.68
2022-08-26T03:48:21.097Z,27.67
2022-08-26T03:50:49.833Z,27.67
2022-08-26T03:53:20.558Z,27.61
2022-08-26T03:55:48.685Z,27.57
2022-08-26T03:58:21.654Z,27.44
2022-08-26T04:00:50.128Z,27.59
2022-08-26T04:03:39.230Z,27.62
2022-08-26T04:06:08.234Z,27.54
2022-08-26T04:08:37.992Z,27.52
2022-08-26T04:11:07.774Z,27.55
2022-08-26T04:13:36.365Z,27.52
2022-08-26T04:16:05.495Z,27.53
2022-08-26T04:18:38.095Z,27.50
2022-08-26T04:21:15.622Z,27.43
2022-08-26T04:23:47.068Z,27.46
2022-08-26T04:26:16.976Z,27.51
2022-08-26T04:28:45.151Z,27.42
2022-08-26T04:31:14.806Z,27.47
2022-08-26T04:33:46.628Z,27.37
2022-08-26T04:36:15.367Z,27.35
2022-08-26T04:38:44.645Z,27.38
2022-08-26T04:41:15.582Z,27.39
2022-08-26T04:43:45.848Z,27.41
2022-08-26T04:46:17.627Z,27.38
2022-08-26T04:48:49.159Z,27.36
2022-08-26T04:51:17.447Z,27.36
2022-08-26T04:53:46.353Z,27.44
2022-08-26T04:56:16.754Z,27.36
2022-08-26T04:58:45.121Z,27.27
2022-08-26T05:01:13.720Z,27.28
2022-08-26T05:03:43.561Z,27.39
2022-08-26T05:06:13.743Z,27.40
2022-08-26T05:08:42.276Z,27.37
2022-08-26T05:11:11.795Z,27.43
2022-08-26T05:13:40.497Z,27.19
2022-08-26T05:16:11.663Z,27.33
2022-08-26T05:18:41.646Z,27.30
2022-08-26T05:21:20.153Z,27.27
2022-08-26T05:23:49.519Z,27.31
2022-08-26T05:26:18.077Z,27.34
2022-08-26T05:28:54.912Z,27.16
2022-08-26T05:31:26.379Z,27.18
2022-08-26T05:33:54.845Z,27.27
2022-08-26T05:36:27.062Z,27.21
2022-08-26T05:38:55.804Z,27.29
2022-08-26T05:41:36.612Z,27.26
2022-08-26T05:44:09.515Z,27.21
2022-08-26T05:46:38.923Z,27.27
2022-08-26T05:49:12.238Z,27.22
2022-08-26T05:51:47.675Z,27.22
2022-08-26T05:54:22.084Z,27.10
2022-08-26T05:56:52.008Z,27.19
2022-08-26T05:59:24.130Z,27.16
2022-08-26T06:01:54.861Z,27.13
2022-08-26T06:04:24.767Z,27.11
2022-08-26T06:06:56.987Z,27.17
2022-08-26T06:09:25.505Z,27.16
2022-08-26T06:11:56.033Z,27.27
2022-08-26T06:14:26.038Z,27.29
2022-08-26T06:16:55.124Z,27.28
2022-08-26T06:19:23.512Z,27.26
2022-08-26T06:21:54.048Z,27.28
2022-08-26T06:24:41.642Z,27.27
2022-08-26T06:27:13.942Z,27.30
2022-08-26T06:29:43.713Z,27.27
2022-08-26T06:32:11.923Z,27.22
2022-08-26T06:34:40.267Z,27.29
2022-08-26T06:37:09.544Z,27.31
2022-08-26T06:39:40.201Z,27.26
2022-08-26T06:42:11.885Z,27.30
2022-08-26T06:44:44.707Z,27.30
2022-08-26T06:47:13.710Z,27.34
2022-08-26T06:49:41.996Z,27.31
2022-08-26T06:52:12.567Z,27.34
2022-08-26T06:54:44.275Z,27.34
2022-08-26T06:57:14.295Z,27.38
2022-08-26T06:59:45.205Z,27.40
2022-08-26T07:02:13.775Z,27.43
2022-08-26T07:04:42.415Z,27.47
2022-08-26T07:07:14.265Z,27.52
2022-08-26T07:09:43.917Z,27.53
2022-08-26T07:12:12.257Z,27.54
2022-08-26T07:14:41.627Z,27.52
2022-08-26T07:17:16.171Z,27.56
2022-08-26T07:19:44.771Z,27.55
2022-08-26T07:22:13.975Z,27.54
2022-08-26T07:24:43.944Z,27.57
2022-08-26T07:27:15.639Z,27.57
2022-08-26T07:29:44.985Z,27.55
2022-08-26T07:32:14.685Z,27.57
2022-08-26T07:34:44.076Z,27.56
2022-08-26T07:37:12.361Z,27.57
2022-08-26T07:39:41.821Z,27.57
2022-08-26T07:42:14.984Z,27.59
2022-08-26T07:44:43.941Z,27.59
2022-08-26T07:47:25.515Z,27.59
2022-08-26T07:49:55.525Z,27.59
2022-08-26T07:52:26.753Z,27.59
2022-08-26T07:54:56.219Z,27.60
2022-08-26T07:57:26.376Z,27.59
2022-08-26T07:59:56.310Z,27.61
2022-08-26T08:02:26.754Z,27.63
2022-08-26T08:04:56.897Z,27.62
2022-08-26T08:07:44.676Z,27.61
2022-08-26T08:10:16.194Z,27.60
2022-08-26T08:12:46.402Z,27.62
2022-08-26T08:15:15.562Z,27.61
2022-08-26T08:17:44.183Z,27.61
2022-08-26T08:20:14.156Z,27.63
2022-08-26T08:22:43.469Z,27.63
2022-08-26T08:25:11.679Z,27.62
2022-08-26T08:27:41.769Z,27.61
2022-08-26T08:30:13.762Z,27.64
2022-08-26T08:32:43.769Z,27.66
2022-08-26T08:35:13.911Z,27.64
2022-08-26T08:37:42.773Z,27.64
2022-08-26T08:40:13.400Z,27.62
2022-08-26T08:42:47.343Z,27.65
2022-08-26T08:45:23.593Z,27.65
2022-08-26T08:47:56.751Z,27.64
2022-08-26T08:50:29.796Z,27.65
2022-08-26T08:53:09.043Z,27.62
2022-08-26T08:56:03.512Z,27.62
2022-08-26T08:58:46.390Z,27.65
2022-08-26T09:01:31.573Z,27.65
2022-08-26T09:04:20.827Z,27.64
2022-08-26T09:06:53.043Z,27.62
2022-08-26T09:09:27.343Z,27.63
2022-08-26T09:11:58.841Z,27.66
2022-08-26T09:14:28.341Z,27.69
2022-08-26T09:17:06.286Z,27.71
2022-08-26T09:19:41.551Z,27.70
2022-08-26T09:22:10.347Z,27.71
2022-08-26T09:24:48.352Z,27.69
2022-08-26T09:27:37.597Z,27.70
2022-08-26T09:30:06.991Z,27.74
2022-08-26T09:32:36.346Z,27.74
2022-08-26T09:35:08.681Z,27.74
2022-08-26T09:37:40.686Z,27.74
2022-08-26T09:40:24.495Z,27.72
2022-08-26T09:43:13.756Z,27.69
2022-08-26T09:45:50.806Z,27.71
2022-08-26T09:48:32.287Z,27.70
2022-08-26T09:51:05.747Z,27.69
2022-08-26T09:53:37.715Z,27.69
2022-08-26T09:56:16.731Z,27.71
2022-08-26T09:58:47.417Z,27.73
2022-08-26T10:01:26.909Z,27.73
2022-08-26T10:04:08.807Z,27.74
2022-08-26T10:06:41.679Z,27.72
2022-08-26T10:09:13.917Z,27.63
2022-08-26T10:11:45.852Z,27.57
2022-08-26T10:14:20.718Z,27.54
2022-08-26T10:16:54.589Z,27.57
2022-08-26T10:19:53.595Z,27.58
2022-08-26T10:22:25.861Z,27.56
2022-08-26T10:24:58.704Z,27.60
2022-08-26T10:27:35.905Z,27.57
2022-08-26T10:30:08.888Z,27.57
2022-08-26T10:32:42.084Z,27.63
2022-08-26T10:35:16.242Z,27.63
2022-08-26T10:37:49.542Z,27.60
2022-08-26T10:40:21.734Z,27.65
2022-08-26T10:42:56.715Z,27.64
2022-08-26T10:45:28.419Z,27.61
2022-08-26T10:48:02.513Z,27.64
2022-08-26T10:50:37.351Z,27.69
2022-08-26T10:53:15.483Z,27.68
2022-08-26T10:55:54.780Z,27.64
2022-08-26T10:58:44.650Z,27.60
2022-08-26T11:01:40.667Z,27.53
2022-08-26T11:04:22.616Z,27.67
2022-08-26T11:07:35.248Z,27.71
2022-08-26T11:10:07.499Z,27.68
2022-08-26T11:12:57.086Z,27.65
2022-08-26T11:16:10.565Z,27.65
2022-08-26T11:18:48.919Z,27.72
2022-08-26T11:22:06.249Z,27.73
2022-08-26T11:25:01.690Z,27.76
2022-08-26T11:28:04.079Z,27.82
2022-08-26T11:30:56.821Z,27.78
2022-08-26T11:33:59.636Z,27.82
2022-08-26T11:37:00.079Z,27.80
2022-08-26T11:39:36.578Z,27.71
2022-08-26T11:42:22.280Z,27.74
2022-08-26T11:44:51.697Z,27.70
2022-08-26T11:47:28.815Z,27.72
2022-08-26T11:50:13.907Z,27.70
2022-08-26T11:52:44.243Z,27.77
2022-08-26T11:55:16.830Z,27.80
2022-08-26T11:57:52.328Z,27.85
2022-08-26T12:00:23.450Z,27.86
2022-08-26T12:02:52.762Z,27.87
2022-08-26T12:05:29.592Z,27.87
2022-08-26T12:08:05.550Z,27.83
2022-08-26T12:10:36.015Z,27.85
2022-08-26T12:13:07.804Z,27.86
2022-08-26T12:15:36.931Z,27.86
2022-08-26T12:18:29.371Z,27.89
2022-08-26T12:21:01.339Z,27.89
2022-08-26T12:23:41.782Z,27.94
2022-08-26T12:26:15.349Z,27.92
2022-08-26T12:28:51.343Z,27.99
2022-08-26T12:31:31.313Z,27.98
2022-08-26T12:34:01.746Z,28.04
2022-08-26T12:36:33.358Z,28.03
2022-08-26T12:39:10.536Z,28.04
2022-08-26T12:41:41.696Z,28.08
2022-08-26T12:44:38.884Z,28.09
2022-08-26T12:47:13.651Z,28.09
2022-08-26T12:49:42.693Z,28.08
2022-08-26T12:52:30.168Z,28.06
2022-08-26T12:55:01.544Z,28.06
2022-08-26T12:57:35.292Z,28.06
2022-08-26T13:00:30.180Z,28.04
2022-08-26T13:02:59.245Z,28.08
2022-08-26T13:05:33.244Z,28.03
2022-08-26T13:08:14.585Z,28.05
2022-08-26T13:10:46.766Z,28.12
2022-08-26T13:13:15.391Z,28.13
2022-08-26T13:15:45.180Z,28.13
2022-08-26T13:18:13.603Z,28.15
2022-08-26T13:20:44.971Z,28.13
2022-08-26T13:23:13.739Z,28.13
2022-08-26T13:25:42.488Z,28.10
2022-08-26T13:28:10.812Z,28.11
2022-08-26T13:30:40.081Z,28.10
2022-08-26T13:33:12.348Z,28.12
2022-08-26T13:35:43.087Z,28.06
2022-08-26T13:38:33.009Z,28.07
2022-08-26T13:41:02.849Z,28.04
2022-08-26T13:43:31.491Z,28.05
2022-08-26T13:46:01.529Z,28.05
2022-08-26T13:48:34.118Z,28.05
2022-08-26T13:51:03.584Z,28.09
2022-08-26T13:53:37.306Z,28.08
2022-08-26T13:56:08.039Z,28.06
2022-08-26T13:58:38.879Z,28.09
2022-08-26T14:01:07.388Z,28.06
2022-08-26T14:03:37.498Z,28.05
2022-08-26T14:06:06.106Z,28.06
2022-08-26T14:08:34.512Z,28.02
2022-08-26T14:11:02.967Z,27.95
2022-08-26T14:13:31.374Z,28.01
2022-08-26T14:16:01.776Z,27.97
2022-08-26T14:18:33.419Z,27.98
2022-08-26T14:21:03.752Z,28.03
2022-08-26T14:23:32.124Z,28.04
2022-08-26T14:26:01.383Z,28.06
2022-08-26T14:28:29.792Z,28.09
2022-08-26T14:30:59.744Z,28.09
2022-08-26T14:33:32.454Z,28.09
2022-08-26T14:36:16.220Z,28.10
2022-08-26T14:38:44.584Z,28.08
2022-08-26T14:41:13.970Z,28.06
2022-08-26T14:43:48.075Z,27.99
2022-08-26T14:46:17.566Z,27.95
2022-08-26T14:48:46.033Z,27.97
2022-08-26T14:51:15.834Z,27.97
2022-08-26T14:54:01.590Z,27.90
2022-08-26T14:56:32.190Z,27.88
2022-08-26T14:59:00.565Z,27.82
2022-08-26T15:01:31.079Z,27.84
2022-08-26T15:04:00.019Z,27.85
2022-08-26T15:06:31.200Z,27.85
2022-08-26T15:08:59.995Z,27.86
2022-08-26T15:11:28.768Z,27.87
2022-08-26T15:13:57.753Z,27.92
2022-08-26T15:16:26.152Z,27.97
2022-08-26T15:18:54.990Z,28.04
2022-08-26T15:21:23.519Z,27.99
2022-08-26T15:23:54.953Z,27.95
2022-08-26T15:26:24.222Z,27.98
2022-08-26T15:28:52.835Z,27.97
2022-08-26T15:31:31.146Z,27.99
2022-08-26T15:34:00.748Z,27.98
2022-08-26T15:36:29.137Z,27.99
2022-08-26T15:39:00.535Z,28.03
2022-08-26T15:41:29.806Z,28.06
2022-08-26T15:44:01.601Z,28.02
2022-08-26T15:46:32.443Z,27.98
2022-08-26T15:49:01.013Z,28.00
2022-08-26T15:51:32.502Z,28.02
2022-08-26T15:54:03.659Z,28.00
2022-08-26T15:56:35.272Z,28.01
2022-08-26T15:59:05.427Z,28.01
2022-08-26T16:01:34.273Z,28.00
2022-08-26T16:04:02.751Z,28.03
2022-08-26T16:06:33.732Z,28.03
2022-08-26T16:09:03.812Z,28.05
2022-08-26T16:11:32.320Z,28.06
2022-08-26T16:14:00.743Z,28.04
2022-08-26T16:16:29.224Z,28.01
2022-08-26T16:18:57.631Z,28.02
2022-08-26T16:21:28.782Z,28.04
2022-08-26T16:23:58.169Z,28.02
2022-08-26T16:26:29.972Z,27.95
2022-08-26T16:28:58.452Z,27.91
2022-08-26T16:31:26.922Z,27.87
2022-08-26T16:33:55.239Z,27.97
2022-08-26T16:36:23.631Z,27.94
2022-08-26T16:38:55.516Z,27.88
2022-08-26T16:41:25.379Z,27.95
2022-08-26T16:43:55.263Z,27.91
2022-08-26T16:46:25.962Z,27.90
2022-08-26T16:48:55.231Z,27.91
2022-08-26T16:51:24.297Z,28.03
2022-08-26T16:53:53.643Z,27.93
2022-08-26T16:56:23.879Z,27.93
2022-08-26T16:59:04.344Z,27.97
2022-08-26T17:01:32.787Z,27.92
2022-08-26T17:04:01.217Z,28.00
2022-08-26T17:06:29.978Z,27.97
2022-08-26T17:08:58.334Z,27.95
2022-08-26T17:11:26.776Z,27.93
2022-08-26T17:13:55.151Z,27.93
2022-08-26T17:16:27.059Z,27.89
2022-08-26T17:18:57.257Z,27.86
2022-08-26T17:21:26.717Z,27.93
2022-08-26T17:23:56.550Z,27.93
2022-08-26T17:26:25.000Z,27.94
2022-08-26T17:28:53.591Z,27.87
2022-08-26T17:31:22.817Z,27.91
2022-08-26T17:33:53.553Z,27.97
2022-08-26T17:36:28.027Z,27.97
2022-08-26T17:38:57.564Z,27.97
2022-08-26T17:41:25.761Z,27.95
2022-08-26T17:43:54.533Z,27.92
2022-08-26T17:46:22.897Z,27.87
2022-08-26T17:48:52.596Z,27.94
2022-08-26T17:51:22.042Z,27.87
2022-08-26T17:53:51.106Z,27.95
2022-08-26T17:56:24.019Z,27.94
2022-08-26T17:58:52.764Z,27.97
2022-08-26T18:01:21.932Z,27.90
2022-08-26T18:03:50.977Z,27.95
2022-08-26T18:06:21.928Z,27.95
2022-08-26T18:08:51.720Z,27.94
2022-08-26T18:11:24.566Z,27.95
2022-08-26T18:13:53.325Z,27.89
2022-08-26T18:16:22.629Z,27.94
2022-08-26T18:18:53.549Z,27.90
2022-08-26T21:18:36.962Z,27.75
2022-08-26T21:21:06.313Z,27.74
2022-08-26T21:23:35.238Z,27.79
2022-08-26T21:26:04.372Z,27.78
2022-08-26T21:28:33.191Z,27.83
2022-08-26T21:31:04.471Z,27.80
2022-08-26T21:33:33.014Z,27.76
2022-08-26T21:36:03.043Z,27.75
2022-08-26T21:38:32.113Z,27.67
2022-08-26T21:41:00.498Z,27.64
2022-08-26T21:43:35.490Z,27.64
2022-08-26T21:46:11.690Z,27.64
2022-08-26T21:48:40.903Z,27.61
2022-08-26T21:51:10.666Z,27.66
2022-08-26T21:53:39.204Z,27.69
2022-08-26T21:56:09.352Z,27.64
2022-08-26T21:58:37.910Z,27.68
2022-08-26T22:01:10.111Z,27.71
2022-08-26T22:03:44.733Z,27.67
2022-08-26T22:06:19.020Z,27.56
2022-08-26T22:08:47.647Z,27.65
2022-08-26T22:11:16.451Z,27.59
2022-08-26T22:13:45.778Z,27.61
2022-08-26T22:16:14.576Z,27.55
2022-08-26T22:18:43.981Z,27.64
2022-08-26T22:21:15.195Z,27.63
2022-08-26T22:23:46.018Z,27.63
2022-08-26T22:26:20.567Z,27.61
2022-08-26T22:28:58.601Z,27.59
2022-08-26T22:31:37.304Z,27.60
2022-08-26T22:34:09.372Z,27.62
2022-08-26T22:36:39.772Z,27.65
2022-08-26T22:39:15.180Z,27.65
2022-08-26T22:41:45.159Z,27.67
2022-08-26T22:44:14.043Z,27.56
2022-08-26T22:46:43.935Z,27.60
2022-08-26T22:49:15.997Z,27.60
2022-08-26T22:51:44.608Z,27.60
2022-08-26T22:54:14.795Z,27.57
2022-08-26T22:56:43.769Z,27.55
2022-08-26T22:59:13.022Z,27.58
2022-08-26T23:01:44.784Z,27.57
2022-08-26T23:04:13.246Z,27.56
2022-08-26T23:06:47.806Z,27.52
2022-08-26T23:09:19.424Z,27.49
2022-08-26T23:11:48.981Z,27.52
2022-08-26T23:14:18.668Z,27.52
2022-08-26T23:16:47.813Z,27.50
2022-08-26T23:19:18.120Z,27.57
2022-08-26T23:21:46.614Z,27.52
2022-08-26T23:24:15.441Z,27.49
2022-08-26T23:26:46.587Z,27.54
2022-08-26T23:29:15.778Z,27.50
2022-08-26T23:31:44.118Z,27.53
2022-08-26T23:34:30.413Z,27.47
2022-08-26T23:36:59.194Z,27.48
2022-08-26T23:39:28.528Z,27.44
2022-08-26T23:41:58.351Z,27.45
2022-08-26T23:44:27.125Z,27.52
2022-08-26T23:46:55.606Z,27.49
2022-08-26T23:49:24.471Z,27.48
2022-08-26T23:52:10.445Z,27.53
2022-08-26T23:54:39.568Z,27.43
2022-08-26T23:57:09.665Z,27.44
2022-08-26T23:59:38.722Z,27.45
